createdAt,value
2023-06-07T00:02:44.126Z,163094.91
2023-06-07T00:05:49.138Z,163084.38
2023-06-07T00:08:53.865Z,163092.22
2023-06-07T00:11:58.551Z,163092.22
2023-06-07T00:15:02.238Z,163085.72
2023-06-07T00:18:06.208Z,163084.38
2023-06-07T00:21:10.256Z,163098.84
2023-06-07T00:24:14.555Z,163094.91
2023-06-07T00:27:19.477Z,163089.59
2023-06-07T00:30:23.449Z,163090.94
2023-06-07T00:33:28.799Z,163089.59
2023-06-07T00:36:35.011Z,163100.06
2023-06-07T00:39:38.988Z,163097.50
2023-06-07T00:42:43.742Z,163088.28
2023-06-07T00:45:48.126Z,163090.94
2023-06-07T00:48:52.999Z,163081.75
2023-06-07T00:51:57.573Z,163081.75
2023-06-07T00:55:03.413Z,163096.19
2023-06-07T00:58:07.547Z,163104.03
2023-06-07T01:01:11.986Z,163101.41
2023-06-07T01:04:19.262Z,163105.34
2023-06-07T01:07:25.831Z,163115.88
2023-06-07T01:10:30.886Z,163118.50
2023-06-07T01:13:35.614Z,163118.50
2023-06-07T01:16:49.708Z,163128.94
2023-06-07T01:19:54.702Z,163130.28
2023-06-07T01:23:00.865Z,163118.50
2023-06-07T01:26:06.011Z,163118.50
2023-06-07T01:29:10.188Z,163119.81
2023-06-07T01:32:14.658Z,163128.94
2023-06-07T01:35:20.651Z,163130.28
2023-06-07T01:38:27.737Z,163140.78
2023-06-07T01:41:33.300Z,163140.78
2023-06-07T01:44:39.777Z,163142.09
2023-06-07T01:47:44.423Z,163126.34
2023-06-07T01:50:48.315Z,163119.81
2023-06-07T01:53:52.621Z,163110.63
2023-06-07T01:57:22.016Z,163118.50
2023-06-07T02:00:32.001Z,163121.09
2023-06-07T02:03:42.886Z,163100.06
2023-06-07T02:06:50.166Z,163090.94
2023-06-07T02:09:54.934Z,163084.38
2023-06-07T02:13:00.565Z,163080.44
2023-06-07T02:16:07.601Z,163059.47
2023-06-07T02:19:12.410Z,163047.66
2023-06-07T02:22:16.601Z,163050.22
2023-06-07T02:25:21.343Z,163052.91
2023-06-07T02:28:25.355Z,163054.19
2023-06-07T02:31:29.353Z,163079.09
2023-06-07T02:34:37.224Z,163072.59
2023-06-07T02:37:41.401Z,163069.97
2023-06-07T02:40:45.374Z,163062.06
2023-06-07T02:43:49.568Z,163066.03
2023-06-07T02:46:53.635Z,163055.50
2023-06-07T02:49:58.744Z,163069.97
2023-06-07T02:53:03.522Z,163054.19
2023-06-07T02:56:07.546Z,163077.81
2023-06-07T02:59:11.309Z,163073.91
2023-06-07T03:02:16.025Z,163067.31
2023-06-07T03:05:20.298Z,163054.19
2023-06-07T03:08:24.386Z,163063.34
2023-06-07T03:11:28.442Z,163050.22
2023-06-07T03:14:32.303Z,163059.47
2023-06-07T03:17:37.108Z,163071.25
2023-06-07T03:20:41.012Z,163060.78
2023-06-07T03:23:45.181Z,163047.66
2023-06-07T03:26:49.716Z,163073.91
2023-06-07T03:29:53.796Z,163068.63
2023-06-07T03:32:58.112Z,163073.91
2023-06-07T03:36:02.841Z,163087.03
2023-06-07T03:39:06.955Z,163092.22
2023-06-07T03:42:11.276Z,163079.09
2023-06-07T03:45:15.544Z,163081.75
2023-06-07T03:48:19.750Z,163083.03
2023-06-07T03:51:24.245Z,163092.22
2023-06-07T03:54:28.468Z,163077.81
2023-06-07T03:57:32.671Z,163073.91
2023-06-07T04:00:36.470Z,163079.09
2023-06-07T04:03:40.747Z,163075.16
2023-06-07T04:06:45.493Z,163079.09
2023-06-07T04:09:49.669Z,163076.47
2023-06-07T04:12:53.722Z,163079.09
2023-06-07T04:15:57.683Z,163093.56
2023-06-07T04:19:02.543Z,163118.50
2023-06-07T04:22:07.032Z,163126.34
2023-06-07T04:25:11.329Z,163128.94
2023-06-07T04:28:15.427Z,163142.09
2023-06-07T04:31:19.231Z,163164.41
2023-06-07T04:34:27.017Z,163181.47
2023-06-07T04:37:32.337Z,163189.31
2023-06-07T04:40:42.266Z,163212.97
2023-06-07T04:43:49.931Z,163239.19
2023-06-07T04:47:02.047Z,163256.28
2023-06-07T04:50:10.080Z,163278.53
2023-06-07T04:53:20.815Z,163275.94
2023-06-07T04:56:27.153Z,163295.63
2023-06-07T04:59:36.043Z,163335.03
2023-06-07T05:02:44.671Z,163357.38
2023-06-07T05:05:49.511Z,163370.44
2023-06-07T05:08:53.661Z,163380.97
2023-06-07T05:11:57.784Z,163391.44
2023-06-07T05:15:02.117Z,163388.81
2023-06-07T05:18:08.367Z,163380.97
2023-06-07T05:21:13.211Z,163390.16
2023-06-07T05:24:17.748Z,163396.72
2023-06-07T05:27:22.230Z,163407.25
2023-06-07T05:30:26.805Z,163419.06
2023-06-07T05:33:32.036Z,163432.19
2023-06-07T05:36:36.820Z,163428.25
2023-06-07T05:39:42.921Z,163438.72
2023-06-07T05:42:47.249Z,163447.91
2023-06-07T05:45:51.409Z,163459.72
2023-06-07T05:48:55.331Z,163453.19
2023-06-07T05:51:59.370Z,163449.19
2023-06-07T05:55:03.331Z,163458.38
2023-06-07T05:58:07.628Z,163472.84
2023-06-07T06:01:12.304Z,163487.28
2023-06-07T06:04:19.478Z,163487.28
2023-06-07T06:07:23.396Z,163486.00
2023-06-07T06:10:27.428Z,163468.94
2023-06-07T06:13:33.795Z,163470.19
2023-06-07T06:16:37.974Z,163478.13
2023-06-07T06:19:42.829Z,163484.66
2023-06-07T06:22:47.036Z,163486.00
2023-06-07T06:25:51.886Z,163454.47
2023-06-07T06:28:56.009Z,163450.53
2023-06-07T06:32:03.591Z,163430.88
2023-06-07T06:35:08.468Z,163425.56
2023-06-07T06:38:12.829Z,163433.44
2023-06-07T06:41:16.901Z,163436.09
2023-06-07T06:44:20.536Z,163441.34
2023-06-07T06:47:26.330Z,163449.19
2023-06-07T06:50:33.564Z,163454.47
2023-06-07T06:53:38.263Z,163459.72
2023-06-07T06:56:42.596Z,163459.72
2023-06-07T06:59:49.387Z,163454.47
2023-06-07T07:02:54.745Z,163442.66
2023-06-07T07:05:58.825Z,163436.09
2023-06-07T07:09:02.979Z,163420.34
2023-06-07T07:12:07.933Z,163457.16
2023-06-07T07:15:12.451Z,163510.94
2023-06-07T07:18:16.495Z,163584.47
2023-06-07T07:21:20.486Z,163633.00
2023-06-07T07:24:24.282Z,163676.38
2023-06-07T07:27:28.314Z,163724.94
2023-06-07T07:30:32.845Z,163751.22
2023-06-07T07:33:37.117Z,163753.84
2023-06-07T07:36:41.244Z,163736.75
2023-06-07T07:39:45.470Z,163696.06
2023-06-07T07:42:50.054Z,163642.22
2023-06-07T07:45:54.373Z,163602.84
2023-06-07T07:48:58.356Z,163614.66
2023-06-07T07:52:02.446Z,163627.81
2023-06-07T07:55:08.675Z,163659.28
2023-06-07T07:58:13.357Z,163697.41
2023-06-07T08:01:19.379Z,163709.22
2023-06-07T08:04:23.453Z,163698.72
2023-06-07T08:07:27.805Z,163705.25
2023-06-07T08:10:32.171Z,163710.53
2023-06-07T08:13:36.533Z,163752.56
2023-06-07T08:16:40.868Z,163769.56
2023-06-07T08:19:45.179Z,163764.38
2023-06-07T08:22:51.675Z,163764.38
2023-06-07T08:25:58.953Z,163740.69
2023-06-07T08:29:02.666Z,163732.84
2023-06-07T08:32:07.074Z,163722.34
2023-06-07T08:35:12.216Z,163715.72
2023-06-07T08:38:16.344Z,163719.69
2023-06-07T08:41:20.553Z,163744.66
2023-06-07T08:44:24.653Z,163790.56
2023-06-07T08:47:29.480Z,163794.59
2023-06-07T08:50:35.222Z,163814.25
2023-06-07T08:53:49.737Z,163831.38
2023-06-07T08:56:56.297Z,163919.38
2023-06-07T09:00:01.559Z,164111.16
2023-06-07T09:03:07.466Z,164360.88
2023-06-07T09:06:12.361Z,164555.44
2023-06-07T09:09:16.488Z,164727.72
2023-06-07T09:12:20.987Z,164853.91
2023-06-07T09:15:25.008Z,164815.78
2023-06-07T09:18:54.706Z,164822.41
2023-06-07T09:21:59.265Z,164906.56
2023-06-07T09:25:10.281Z,164822.41
2023-06-07T09:28:15.363Z,164771.06
2023-06-07T09:31:30.430Z,164675.06
2023-06-07T09:34:34.918Z,164706.69
2023-06-07T09:37:47.217Z,164743.47
2023-06-07T09:40:52.384Z,164764.53
2023-06-07T09:43:56.710Z,164776.38
2023-06-07T09:47:04.545Z,164755.31
2023-06-07T09:50:11.118Z,164702.72
2023-06-07T09:53:16.186Z,164686.91
2023-06-07T09:56:22.738Z,164715.84
2023-06-07T09:59:27.006Z,164707.97
2023-06-07T10:02:31.328Z,164710.63
2023-06-07T10:05:36.040Z,164707.97
2023-06-07T10:08:40.297Z,164704.00
2023-06-07T10:11:47.353Z,164689.59
2023-06-07T10:14:53.401Z,164682.94
2023-06-07T10:18:12.396Z,164702.72
2023-06-07T10:21:20.294Z,164734.25
2023-06-07T10:24:36.656Z,164781.63
2023-06-07T10:28:26.151Z,164818.44
2023-06-07T10:31:35.816Z,164857.88
2023-06-07T10:34:40.665Z,164896.06
2023-06-07T10:37:45.411Z,164951.31
2023-06-07T10:40:49.853Z,165031.56
2023-06-07T10:43:53.651Z,165034.13
2023-06-07T10:47:23.315Z,165076.28
2023-06-07T10:50:27.300Z,165081.53
2023-06-07T10:53:51.442Z,165097.31
2023-06-07T10:56:55.349Z,165031.56
2023-06-07T11:00:31.208Z,165040.72
2023-06-07T11:03:38.995Z,165026.25
2023-06-07T11:07:15.866Z,165047.31
2023-06-07T11:10:32.368Z,165068.41
2023-06-07T11:13:48.435Z,165076.28
2023-06-07T11:16:52.530Z,165003.91
2023-06-07T11:19:58.901Z,165063.09
2023-06-07T11:23:26.751Z,165052.56
2023-06-07T11:26:35.615Z,164992.06
2023-06-07T11:29:40.580Z,165036.75
2023-06-07T11:32:46.142Z,165063.09
2023-06-07T11:35:50.920Z,165118.38
2023-06-07T11:38:56.942Z,165174.94
2023-06-07T11:42:01.127Z,165239.41
2023-06-07T11:45:05.666Z,165243.38
2023-06-07T11:48:10.860Z,165231.53
2023-06-07T11:51:15.453Z,165222.31
2023-06-07T11:54:24.264Z,165261.78
2023-06-07T11:57:33.269Z,165252.59
2023-06-07T12:00:38.666Z,165246.00
2023-06-07T12:03:45.268Z,165226.28
2023-06-07T12:06:52.538Z,165205.19
2023-06-07T12:09:56.890Z,165236.78
2023-06-07T12:13:11.144Z,165240.75
2023-06-07T12:16:15.574Z,165280.22
2023-06-07T12:19:20.146Z,165307.81
2023-06-07T12:22:26.670Z,165305.22
2023-06-07T12:25:30.837Z,165323.69
2023-06-07T12:28:35.097Z,165310.47
2023-06-07T12:31:42.335Z,165309.16
2023-06-07T12:34:46.833Z,165297.34
2023-06-07T12:37:51.104Z,165252.59
2023-06-07T12:40:55.355Z,165252.59
2023-06-07T12:44:00.833Z,165313.13
2023-06-07T12:47:04.929Z,165318.38
2023-06-07T12:50:10.100Z,165313.13
2023-06-07T12:53:14.334Z,165311.81
2023-06-07T12:56:18.552Z,165238.06
2023-06-07T12:59:22.701Z,165251.25
2023-06-07T13:02:27.849Z,165255.19
2023-06-07T13:05:32.407Z,165234.16
2023-06-07T13:08:36.820Z,165226.28
2023-06-07T13:11:42.882Z,165255.19
2023-06-07T13:14:47.585Z,165244.72
2023-06-07T13:17:51.755Z,165288.13
2023-06-07T13:20:56.437Z,165307.81
2023-06-07T13:24:00.587Z,165321.00
2023-06-07T13:27:05.063Z,165363.13
2023-06-07T13:30:09.839Z,165384.16
2023-06-07T13:33:18.216Z,165376.25
2023-06-07T13:36:23.409Z,165357.84
2023-06-07T13:39:27.648Z,165336.81
2023-06-07T13:42:32.418Z,165339.44
2023-06-07T13:45:37.200Z,165294.72
2023-06-07T13:48:42.408Z,165310.47
2023-06-07T13:51:47.425Z,165313.13
2023-06-07T13:54:51.660Z,165282.81
2023-06-07T13:57:56.075Z,165252.59
2023-06-07T14:01:03.853Z,165222.31
2023-06-07T14:04:08.659Z,165227.59
2023-06-07T14:07:12.904Z,165255.19
2023-06-07T14:10:17.452Z,165293.38
2023-06-07T14:13:22.260Z,165310.47
2023-06-07T14:16:28.390Z,165309.16
2023-06-07T14:19:32.971Z,165319.72
2023-06-07T14:22:36.995Z,165301.25
2023-06-07T14:25:40.996Z,165282.81
2023-06-07T14:28:45.523Z,165253.91
2023-06-07T14:31:49.666Z,165235.50
2023-06-07T14:34:53.880Z,165205.19
2023-06-07T14:37:58.061Z,165186.75
2023-06-07T14:41:01.955Z,165173.66
2023-06-07T14:44:06.660Z,165168.34
2023-06-07T14:47:10.846Z,165168.34
2023-06-07T14:50:15.111Z,165173.66
2023-06-07T14:53:19.225Z,165110.47
2023-06-07T14:56:23.493Z,165086.78
2023-06-07T14:59:27.726Z,165034.13
2023-06-07T15:02:32.103Z,165013.13
2023-06-07T15:05:36.338Z,164968.41
2023-06-07T15:08:41.032Z,164932.88
2023-06-07T15:11:45.178Z,164888.13
2023-06-07T15:14:49.139Z,164855.25
2023-06-07T15:17:54.076Z,164802.69
2023-06-07T15:20:59.973Z,164785.59
2023-06-07T15:24:04.222Z,164723.72
2023-06-07T15:27:08.683Z,164692.16
2023-06-07T15:30:13.503Z,164682.94
2023-06-07T15:33:17.801Z,164660.66
2023-06-07T15:36:21.735Z,164625.09
2023-06-07T15:39:25.833Z,164597.50
2023-06-07T15:42:30.392Z,164562.00
2023-06-07T15:45:34.454Z,164523.84
2023-06-07T15:48:38.708Z,164476.56
2023-06-07T15:51:42.724Z,164487.06
2023-06-07T15:54:46.862Z,164460.78
2023-06-07T15:57:51.644Z,164426.63
2023-06-07T16:00:56.134Z,164400.34
2023-06-07T16:04:00.610Z,164367.47
2023-06-07T16:07:05.129Z,164331.91
2023-06-07T16:10:09.543Z,164300.38
2023-06-07T16:13:13.447Z,164281.97
2023-06-07T16:16:17.846Z,164254.41
2023-06-07T16:19:21.934Z,164222.88
2023-06-07T16:22:26.186Z,164205.81
2023-06-07T16:25:30.276Z,164174.25
2023-06-07T16:28:34.506Z,164149.25
2023-06-07T16:31:38.611Z,164124.31
2023-06-07T16:34:42.727Z,164108.53
2023-06-07T16:37:46.828Z,164094.09
2023-06-07T16:40:50.955Z,164086.16
2023-06-07T16:43:55.111Z,164082.25
2023-06-07T16:46:59.902Z,164080.97
2023-06-07T16:50:05.196Z,164084.88
2023-06-07T16:53:09.506Z,164071.78
2023-06-07T16:56:13.827Z,164074.34
2023-06-07T16:59:17.812Z,164071.78
2023-06-07T17:02:21.906Z,164074.34
2023-06-07T17:05:26.049Z,164065.19
2023-06-07T17:08:30.196Z,164046.78
2023-06-07T17:11:34.454Z,164071.78
2023-06-07T17:14:38.742Z,164061.25
2023-06-07T17:17:42.712Z,164059.94
2023-06-07T17:20:49.298Z,164050.75
2023-06-07T17:23:53.737Z,164036.25
2023-06-07T17:26:57.867Z,164034.97
2023-06-07T17:30:02.069Z,164024.44
2023-06-07T17:33:07.225Z,164011.28
2023-06-07T17:36:11.557Z,164008.66
2023-06-07T17:39:16.678Z,164000.78
2023-06-07T17:42:22.208Z,163998.16
2023-06-07T17:45:29.786Z,163995.53
2023-06-07T17:48:33.682Z,163996.88
2023-06-07T17:51:38.155Z,163998.16
2023-06-07T17:54:42.362Z,163990.31
2023-06-07T17:57:46.544Z,163991.59
2023-06-07T18:00:50.667Z,163983.72
2023-06-07T18:03:54.816Z,163979.75
2023-06-07T18:07:01.299Z,163971.91
2023-06-07T18:10:08.806Z,163977.16
2023-06-07T18:13:13.216Z,163979.75
2023-06-07T18:16:17.312Z,163971.91
2023-06-07T18:19:21.348Z,163969.28
2023-06-07T18:22:25.657Z,163956.13
2023-06-07T18:25:30.610Z,163950.88
2023-06-07T18:28:34.828Z,163932.50
2023-06-07T18:31:40.685Z,163929.88
2023-06-07T18:34:44.617Z,163941.69
2023-06-07T18:37:49.063Z,163940.34
2023-06-07T18:40:53.668Z,163922.00
2023-06-07T18:44:01.329Z,163916.72
2023-06-07T18:47:07.024Z,163916.72
2023-06-07T18:50:11.923Z,163908.84
2023-06-07T18:53:16.298Z,163911.47
2023-06-07T18:56:21.268Z,163887.84
2023-06-07T18:59:25.056Z,163895.69
2023-06-07T19:02:29.610Z,163889.16
2023-06-07T19:05:34.143Z,163879.91
2023-06-07T19:08:39.972Z,163866.81
2023-06-07T19:11:44.117Z,163856.34
2023-06-07T19:14:48.287Z,163856.34
2023-06-07T19:17:52.610Z,163839.22
2023-06-07T19:20:57.160Z,163828.69
2023-06-07T19:24:04.062Z,163790.56
2023-06-07T19:27:11.858Z,163780.09
2023-06-07T19:30:16.214Z,163785.38
2023-06-07T19:33:20.123Z,163776.19
2023-06-07T19:36:23.878Z,163770.91
2023-06-07T19:39:27.832Z,163777.53
2023-06-07T19:42:31.990Z,163793.25
2023-06-07T19:45:36.135Z,163786.66
2023-06-07T19:48:42.850Z,163793.25
2023-06-07T19:51:46.737Z,163780.09
2023-06-07T19:54:51.086Z,163773.56
2023-06-07T19:57:55.564Z,163761.69
2023-06-07T20:00:59.605Z,163765.66
2023-06-07T20:04:03.347Z,163757.75
2023-06-07T20:07:09.318Z,163743.38
2023-06-07T20:10:14.762Z,163727.59
2023-06-07T20:13:18.897Z,163706.59
2023-06-07T20:16:23.304Z,163706.59
2023-06-07T20:19:27.667Z,163696.06
2023-06-07T20:22:34.304Z,163680.28
2023-06-07T20:25:38.343Z,163663.25
2023-06-07T20:28:42.400Z,163659.28
2023-06-07T20:31:53.158Z,163644.81
2023-06-07T20:34:58.668Z,163625.13
2023-06-07T20:38:02.733Z,163623.84
2023-06-07T20:41:06.786Z,163610.72
2023-06-07T20:44:10.781Z,163600.19
2023-06-07T20:47:14.914Z,163593.66
2023-06-07T20:50:18.880Z,163597.59
2023-06-07T20:53:23.141Z,163580.50
2023-06-07T20:56:27.714Z,163575.22
2023-06-07T20:59:32.096Z,163567.38
2023-06-07T21:02:36.631Z,163560.84
2023-06-07T21:05:41.347Z,163563.47
2023-06-07T21:08:45.449Z,163564.75
2023-06-07T21:11:50.098Z,163551.59
2023-06-07T21:14:56.515Z,163537.19
2023-06-07T21:18:00.664Z,163535.88
2023-06-07T21:21:05.054Z,163529.28
2023-06-07T21:24:09.055Z,163531.94
2023-06-07T21:27:13.118Z,163530.59
2023-06-07T21:30:17.571Z,163534.56
2023-06-07T21:33:22.008Z,163514.91
2023-06-07T21:36:26.613Z,163504.38
2023-06-07T21:39:31.148Z,163509.59
2023-06-07T21:42:35.076Z,163493.84
2023-06-07T21:45:38.943Z,163486.00
2023-06-07T21:48:43.019Z,163493.84
2023-06-07T21:51:47.445Z,163492.56
2023-06-07T21:54:51.589Z,163496.47
2023-06-07T21:57:55.739Z,163486.00
2023-06-07T22:01:00.017Z,163466.28
2023-06-07T22:04:04.796Z,163478.13
2023-06-07T22:07:09.008Z,163471.53
2023-06-07T22:10:13.658Z,163458.38
2023-06-07T22:13:21.496Z,163451.84
2023-06-07T22:16:26.504Z,163465.00
2023-06-07T22:19:31.298Z,163474.13
2023-06-07T22:22:35.517Z,163467.63
2023-06-07T22:25:41.986Z,163463.66
2023-06-07T22:28:47.240Z,163449.19
2023-06-07T22:31:51.348Z,163453.19
2023-06-07T22:35:04.799Z,163455.81
2023-06-07T22:38:13.326Z,163455.81
2023-06-07T22:41:17.662Z,163459.72
2023-06-07T22:44:21.780Z,163465.00
2023-06-07T22:47:29.850Z,163454.47
2023-06-07T22:50:38.075Z,163446.56
2023-06-07T22:53:42.166Z,163446.56
2023-06-07T22:56:46.190Z,163449.19
2023-06-07T22:59:50.224Z,163451.84
2023-06-07T23:02:54.834Z,163451.84
2023-06-07T23:06:02.696Z,163459.72
2023-06-07T23:09:06.758Z,163468.94
2023-06-07T23:12:11.080Z,163499.09
2023-06-07T23:15:16.581Z,163504.38
2023-06-07T23:18:21.578Z,163495.13
2023-06-07T23:21:30.146Z,163505.66
2023-06-07T23:24:34.316Z,163499.09
2023-06-07T23:27:44.771Z,163492.56
2023-06-07T23:30:49.019Z,163489.94
2023-06-07T23:33:53.408Z,163472.84
2023-06-07T23:36:57.189Z,163476.81
2023-06-07T23:40:03.361Z,163478.13
2023-06-07T23:43:08.053Z,163486.00
2023-06-07T23:46:13.003Z,163483.31
2023-06-07T23:49:17.195Z,163489.94
2023-06-07T23:52:21.438Z,163479.41
2023-06-07T23:55:25.894Z,163461.03
2023-06-07T23:58:30.083Z,163457.16
